Time;durP1;ratioP1;P1;durP2;ratioP2;P2;SDS_P1;SDS_P2;PMS_P1;PMS_P2;Temp;Humidity;BMP_temperature;BMP_pressure;BME280_temperature;BME280_humidity;BME280_pressure;Samples;Min_cycle;Max_cycle;Signal;HPM_P1;HPM_P2
2020/12/07 00:00:30;;;;;;;5.37;4.30;;;;;;;;;;5086057;28;20032;-58
2020/12/07 00:03:14;;;;;;;4.70;4.13;;;;;;;;;;5122285;28;20072;-56
2020/12/07 00:06:19;;;;;;;6.03;4.90;;;;;;;;;;5123172;28;20114;-55
2020/12/07 00:08:47;;;;;;;10.70;4.77;;;;;;;;;;5120018;28;20036;-54
2020/12/07 00:11:25;;;;;;;6.70;4.90;;;;;;;;;;5122593;28;20032;-57
2020/12/07 00:14:40;;;;;;;9.13;4.83;;;;;;;;;;5122563;28;20106;-56
2020/12/07 00:17:13;;;;;;;;;;;;;;;;;;;;;
2020/12/07 00:19:58;;;;;;;3.60;2.87;;;;;;;;;;5122784;28;20084;-57
2020/12/07 00:22:31;;;;;;;5.90;3.77;;;;;;;;;;5121871;28;20028;-55
2020/12/07 00:28:20;;;;;;;4.87;3.30;;;;;;;;;;5105011;28;20510;-56
2020/12/07 00:31:02;;;;;;;4.33;3.43;;;;;;;;;;5122566;28;20096;-57
2020/12/07 00:36:48;;;;;;;;;;;;;;;;;;;;;
2020/12/07 00:39:18;;;;;;;5.13;3.50;;;;;;;;;;5121935;28;20098;-57
2020/12/07 00:44:46;;;;;;;7.87;4.23;;;;;;;;;;5089436;28;20034;-57
2020/12/07 00:47:24;;;;;;;4.00;2.93;;;;;;;;;;5121909;28;20079;-56
2020/12/07 00:56:03;;;;;;;4.37;3.20;;;;;;;;;;5121361;28;20035;-57
2020/12/07 01:04:45;;;;;;;4.00;3.00;;;;;;;;;;5068731;28;20092;-54
2020/12/07 01:07:18;;;;;;;4.73;3.83;;;;;;;;;;5114740;28;20068;-54
2020/12/07 01:10:06;;;;;;;4.23;3.03;;;;;;;;;;5120824;28;20314;-57
2020/12/07 01:12:38;;;;;;;5.40;4.40;;;;;;;;;;5120524;28;20080;-57
2020/12/07 01:15:31;;;;;;;4.00;3.23;;;;;;;;;;5121156;28;20047;-56
2020/12/07 01:18:19;;;;;;;4.70;3.40;;;;;;;;;;5115687;28;20041;-54
2020/12/07 01:20:54;;;;;;;4.90;3.73;;;;;;;;;;5120114;28;20054;-57
2020/12/07 01:24:05;;;;;;;;;;;;;;;;;;;;;
2020/12/07 01:26:36;;;;;;;;;;;;;;;;;;;;;
2020/12/07 01:29:47;;;;;;;5.00;3.03;;;;;;;;;;5120648;28;20516;-55
2020/12/07 01:32:32;;;;;;;5.47;3.63;;;;;;;;;;5096355;28;20036;-58
2020/12/07 01:35:10;;;;;;;5.67;3.53;;;;;;;;;;5120575;28;20024;-57
2020/12/07 01:37:58;;;;;;;5.70;3.70;;;;;;;;;;5119951;28;20031;-56
2020/12/07 01:40:32;;;;;;;4.60;3.07;;;;;;;;;;5120104;28;20036;-57
2020/12/07 01:43:22;;;;;;;5.37;4.30;;;;;;;;;;5119657;28;20104;-57
2020/12/07 01:46:17;;;;;;;4.97;3.80;;;;;;;;;;5119306;28;20036;-57
2020/12/07 01:49:04;;;;;;;5.07;4.00;;;;;;;;;;5119436;28;20026;-57
2020/12/07 01:51:39;;;;;;;4.37;3.73;;;;;;;;;;5067263;28;20040;-55
2020/12/07 01:54:11;;;;;;;6.43;4.90;;;;;;;;;;5099429;28;20032;-57
2020/12/07 01:56:41;;;;;;;4.80;3.57;;;;;;;;;;5098631;28;20461;-56
2020/12/07 02:00:01;;;;;;;3.93;3.43;;;;;;;;;;5098603;28;20024;-56
2020/12/07 02:02:57;;;;;;;5.30;3.50;;;;;;;;;;4997165;28;20031;-55
2020/12/07 02:05:30;;;;;;;5.47;3.70;;;;;;;;;;4997545;28;20037;-55
2020/12/07 02:08:15;;;;;;;5.60;4.43;;;;;;;;;;4997388;28;20556;-57
2020/12/07 02:11:45;;;;;;;5.53;3.50;;;;;;;;;;4996977;28;20022;-55
2020/12/07 02:14:06;;;;;;;5.80;3.50;;;;;;;;;;5035143;28;20032;-55
2020/12/07 02:16:42;;;;;;;4.37;3.07;;;;;;;;;;5099039;28;20031;-58
2020/12/07 02:19:24;;;;;;;5.00;3.23;;;;;;;;;;5081039;28;20024;-57
2020/12/07 02:22:05;;;;;;;4.37;3.23;;;;;;;;;;5099006;28;20031;-55
2020/12/07 02:25:00;;;;;;;4.38;3.33;;;;;;;;;;5076254;28;20036;-56
2020/12/07 02:27:38;;;;;;;5.03;3.13;;;;;;;;;;5090063;28;20350;-56
2020/12/07 02:30:07;;;;;;;6.10;3.73;;;;;;;;;;5099396;28;20020;-57
2020/12/07 02:35:32;;;;;;;;;;;;;;;;;;;;;
2020/12/07 02:38:22;;;;;;;4.17;3.00;;;;;;;;;;5091276;28;20111;-58
2020/12/07 02:40:52;;;;;;;3.25;2.60;;;;;;;;;;5099169;28;20032;-55
2020/12/07 02:43:48;;;;;;;4.37;3.07;;;;;;;;;;5098742;28;20051;-56
2020/12/07 02:46:23;;;;;;;4.13;3.63;;;;;;;;;;5099331;28;20030;-57
2020/12/07 02:49:07;;;;;;;2.83;1.97;;;;;;;;;;5099297;28;20134;-57
2020/12/07 02:54:46;;;;;;;4.57;3.47;;;;;;;;;;5036581;28;20103;-57
2020/12/07 03:04:03;;;;;;;3.73;2.60;;;;;;;;;;5105562;28;20035;-54
2020/12/07 03:06:33;;;;;;;4.07;2.80;;;;;;;;;;5119715;28;20102;-55
2020/12/07 03:12:21;;;;;;;3.97;2.57;;;;;;;;;;5119881;28;20031;-55
2020/12/07 03:15:13;;;;;;;2.23;2.03;;;;;;;;;;5095677;28;20213;-57
2020/12/07 03:17:46;;;;;;;3.07;2.57;;;;;;;;;;5102050;28;20085;-57
2020/12/07 03:20:21;;;;;;;4.37;2.80;;;;;;;;;;5101951;28;20384;-57
2020/12/07 03:23:06;;;;;;;3.97;3.13;;;;;;;;;;5119969;28;20034;-56
2020/12/07 03:25:45;;;;;;;3.63;2.80;;;;;;;;;;5101710;28;20035;-57
2020/12/07 03:28:29;;;;;;;4.37;3.17;;;;;;;;;;5101033;28;20032;-56
2020/12/07 03:31:30;;;;;;;3.53;2.23;;;;;;;;;;5120182;28;20015;-57
2020/12/07 03:34:13;;;;;;;2.53;2.17;;;;;;;;;;5119950;28;20020;-57
2020/12/07 03:36:51;;;;;;;4.00;2.93;;;;;;;;;;5119253;28;20023;-57
2020/12/07 03:42:36;;;;;;;2.83;1.87;;;;;;;;;;5119669;28;20039;-56
2020/12/07 03:45:35;;;;;;;4.60;2.97;;;;;;;;;;5100451;28;20043;-57
2020/12/07 03:48:22;;;;;;;4.80;3.27;;;;;;;;;;5014009;28;20045;-59
2020/12/07 03:50:52;;;;;;;5.23;2.63;;;;;;;;;;5079740;28;20039;-55
2020/12/07 03:53:25;;;;;;;3.63;2.50;;;;;;;;;;5120008;28;20027;-57
2020/12/07 03:56:22;;;;;;;4.90;3.20;;;;;;;;;;5120100;28;20038;-56
2020/12/07 03:59:15;;;;;;;4.20;3.07;;;;;;;;;;5100275;28;20095;-54
2020/12/07 04:02:01;;;;;;;3.83;2.90;;;;;;;;;;5098813;28;20042;-57
2020/12/07 04:04:59;;;;;;;3.43;2.77;;;;;;;;;;5099824;28;20040;-57
2020/12/07 04:07:53;;;;;;;3.43;2.07;;;;;;;;;;5100921;28;20027;-57
2020/12/07 04:10:55;;;;;;;2.83;2.03;;;;;;;;;;5119026;28;20051;-57
2020/12/07 04:13:34;;;;;;;4.27;2.80;;;;;;;;;;5102269;28;20035;-56
2020/12/07 04:19:17;;;;;;;2.97;2.50;;;;;;;;;;5122962;28;20461;-57
2020/12/07 04:21:56;;;;;;;5.43;2.97;;;;;;;;;;5119338;28;20105;-56
2020/12/07 04:24:22;;;;;;;4.80;2.63;;;;;;;;;;5096805;28;20495;-56
2020/12/07 04:33:39;;;;;;;3.97;2.73;;;;;;;;;;5117442;28;20070;-57
2020/12/07 04:35:56;;;;;;;3.53;2.27;;;;;;;;;;5101520;28;20028;-54
2020/12/07 04:41:44;;;;;;;3.80;2.50;;;;;;;;;;5117364;28;20477;-57
2020/12/07 04:44:24;;;;;;;3.40;2.47;;;;;;;;;;5104090;28;20468;-56
2020/12/07 04:47:05;;;;;;;3.85;3.00;;;;;;;;;;5098927;28;20533;-57
2020/12/07 04:49:44;;;;;;;4.68;2.67;;;;;;;;;;5054307;28;20078;-57
2020/12/07 04:52:10;;;;;;;4.27;3.13;;;;;;;;;;5038127;28;20121;-56
2020/12/07 04:54:41;;;;;;;3.47;3.03;;;;;;;;;;5054458;28;20096;-57
2020/12/07 04:57:10;;;;;;;;;;;;;;;;;;5037921;28;20048;-55
2020/12/07 04:59:48;;;;;;;;;;;;;;;;;;;;;
2020/12/07 05:05:43;;;;;;;;;;;;;;;;;;;;;
2020/12/07 05:09:10;;;;;;;5.07;3.03;;;;;;;;;;5037193;28;20055;-57
2020/12/07 05:15:12;;;;;;;;;;;;;;;;;;;;;
2020/12/07 05:17:57;;;;;;;5.80;3.25;;;;;;;;;;5006175;28;20337;-55
2020/12/07 05:20:42;;;;;;;4.77;3.23;;;;;;;;;;4998205;28;20037;-56
2020/12/07 05:26:13;;;;;;;3.40;2.70;;;;;;;;;;5043073;28;20115;-57
2020/12/07 05:28:55;;;;;;;3.60;2.23;;;;;;;;;;5116428;28;20130;-57
2020/12/07 05:31:26;;;;;;;5.00;3.13;;;;;;;;;;5115811;28;20465;-56
2020/12/07 05:34:02;;;;;;;;;;;;;;;;;;;;;
2020/12/07 05:36:54;;;;;;;2.87;2.17;;;;;;;;;;5104503;28;19990;-57
2020/12/07 05:45:21;;;;;;;4.73;3.40;;;;;;;;;;5116733;28;20427;-58
2020/12/07 05:47:55;;;;;;;6.30;3.60;;;;;;;;;;5116570;28;20443;-57
2020/12/07 05:53:25;;;;;;;3.97;3.57;;;;;;;;;;5112826;28;20137;-58
2020/12/07 05:56:20;;;;;;;4.40;3.03;;;;;;;;;;5117555;28;20024;-58
2020/12/07 06:02:17;;;;;;;3.08;2.47;;;;;;;;;;5115562;28;20622;-55
2020/12/07 06:09:09;;;;;;;5.30;3.60;;;;;;;;;;5115081;28;20035;-55
2020/12/07 06:12:02;;;;;;;7.97;4.22;;;;;;;;;;5030842;28;20137;-56
2020/12/07 06:14:48;;;;;;;4.23;3.43;;;;;;;;;;5032282;28;20091;-56
2020/12/07 06:17:47;;;;;;;4.47;3.60;;;;;;;;;;5096599;28;20429;-55
2020/12/07 06:20:34;;;;;;;7.57;5.37;;;;;;;;;;5012015;28;20038;-57
2020/12/07 06:23:13;;;;;;;8.70;6.23;;;;;;;;;;4972630;28;20038;-55
2020/12/07 06:25:59;;;;;;;5.77;4.53;;;;;;;;;;5115558;28;20364;-53
2020/12/07 06:29:04;;;;;;;7.37;4.87;;;;;;;;;;5064131;28;20036;-57
2020/12/07 06:31:40;;;;;;;5.30;4.23;;;;;;;;;;5012226;28;20400;-57
2020/12/07 06:34:24;;;;;;;5.40;4.00;;;;;;;;;;5081698;28;20043;-56
2020/12/07 06:42:52;;;;;;;4.23;3.80;;;;;;;;;;5115059;28;20035;-57
2020/12/07 06:48:50;;;;;;;6.10;5.50;;;;;;;;;;5029529;28;20148;-54
2020/12/07 06:51:32;;;;;;;5.73;4.47;;;;;;;;;;5114448;28;20056;-54
2020/12/07 06:55:01;;;;;;;7.53;4.00;;;;;;;;;;5071737;28;20036;-55
2020/12/07 07:00:34;;;;;;;4.57;4.10;;;;;;;;;;5012118;28;20041;-57
2020/12/07 07:03:21;;;;;;;;;;;;;;;;;;;;;
2020/12/07 07:06:18;;;;;;;9.90;4.60;;;;;;;;;;5009961;28;20168;-54
2020/12/07 07:09:02;;;;;;;5.63;4.10;;;;;;;;;;5006141;28;20457;-56
2020/12/07 07:11:48;;;;;;;11.33;5.27;;;;;;;;;;5012868;28;20030;-56
2020/12/07 07:14:20;;;;;;;6.37;4.73;;;;;;;;;;4996235;28;20038;-57
2020/12/07 07:17:07;;;;;;;5.77;4.37;;;;;;;;;;5035635;28;20417;-58
2020/12/07 07:20:18;;;;;;;5.03;4.17;;;;;;;;;;5051136;28;20040;-57
2020/12/07 07:23:01;;;;;;;7.30;4.78;;;;;;;;;;5005803;28;20037;-56
2020/12/07 07:26:09;;;;;;;5.13;4.13;;;;;;;;;;5075625;28;20073;-57
2020/12/07 07:28:53;;;;;;;6.60;4.97;;;;;;;;;;4993335;28;20033;-57
2020/12/07 07:31:36;;;;;;;6.43;3.57;;;;;;;;;;5012624;28;20059;-56
2020/12/07 07:34:26;;;;;;;4.60;4.03;;;;;;;;;;4997664;28;20042;-58
2020/12/07 07:37:02;;;;;;;6.10;4.73;;;;;;;;;;5012045;28;20092;-57
2020/12/07 07:42:57;;;;;;;8.07;5.83;;;;;;;;;;5012342;28;20509;-55
2020/12/07 07:45:41;;;;;;;8.13;5.03;;;;;;;;;;5055023;28;20469;-57
2020/12/07 07:48:51;;;;;;;6.27;4.73;;;;;;;;;;5119430;28;20051;-57
2020/12/07 08:18:35;;;;;;;;;;;;;;;;;;;;;
2020/12/07 08:21:32;;;;;;;8.00;6.13;;;;;;;;;;5117416;28;20380;-56
2020/12/07 08:24:31;;;;;;;8.50;5.53;;;;;;;;;;5117519;28;20024;-56
2020/12/07 08:27:21;;;;;;;6.37;5.03;;;;;;;;;;5117402;28;20039;-55
2020/12/07 08:30:11;;;;;;;8.83;6.23;;;;;;;;;;5100387;28;20520;-55
2020/12/07 08:35:47;;;;;;;5.70;4.60;;;;;;;;;;5084905;28;20028;-57
2020/12/07 08:39:04;;;;;;;6.83;5.80;;;;;;;;;;5117128;28;20020;-57
2020/12/07 08:41:37;;;;;;;8.47;5.53;;;;;;;;;;5114986;28;20032;-57
2020/12/07 08:44:43;;;;;;;;;;;;;;;;;;;;;
2020/12/07 08:47:18;;;;;;;;;;;;;;;;;;;;;
2020/12/07 08:50:28;;;;;;;6.67;5.97;;;;;;;;;;5068846;28;20036;-55
2020/12/07 08:52:58;;;;;;;6.13;4.87;;;;;;;;;;5030981;28;20405;-58
2020/12/07 08:55:37;;;;;;;7.37;5.53;;;;;;;;;;5077536;28;20039;-54
2020/12/07 08:58:12;;;;;;;8.37;6.03;;;;;;;;;;5096531;28;20031;-58
2020/12/07 09:01:04;;;;;;;8.00;6.30;;;;;;;;;;5096054;28;20032;-57
2020/12/07 09:06:48;;;;;;;5.23;4.20;;;;;;;;;;5053397;28;20036;-56
2020/12/07 09:12:32;;;;;;;7.80;5.70;;;;;;;;;;5034054;28;20028;-58
2020/12/07 09:18:59;;;;;;;7.03;5.57;;;;;;;;;;4993941;28;20035;-57
2020/12/07 09:22:17;;;;;;;5.00;4.30;;;;;;;;;;4987891;28;20034;-58
2020/12/07 09:25:14;;;;;;;8.05;5.72;;;;;;;;;;4992364;28;20035;-57
2020/12/07 09:41:41;;;;;;;;;;;;;;;;;;;;;
2020/12/07 09:44:21;;;;;;;4.60;4.20;;;;;;;;;;4860765;29;20034;-57
2020/12/07 09:50:37;;;;;;;;;;;;;;;;;;;;;
2020/12/07 09:53:53;;;;;;;7.03;4.60;;;;;;;;;;4879269;29;20055;-57
2020/12/07 10:00:11;;;;;;;;;;;;;;;;;;;;;
2020/12/07 10:02:52;;;;;;;6.50;4.63;;;;;;;;;;4804571;29;20051;-57
2020/12/07 10:05:47;;;;;;;8.47;4.73;;;;;;;;;;4804665;29;20088;-57
2020/12/07 10:09:03;;;;;;;;;;;;;;;;;;;;;
2020/12/07 10:11:29;;;;;;;5.50;3.73;;;;;;;;;;4989539;28;20387;-58
2020/12/07 10:14:29;;;;;;;7.67;4.43;;;;;;;;;;5052909;28;20029;-58
2020/12/07 10:32:59;;;;;;;6.87;3.97;;;;;;;;;;4895991;29;20526;-58
2020/12/07 10:42:27;;;;;;;4.97;4.07;;;;;;;;;;4823821;29;20475;-57
2020/12/07 10:44:59;;;;;;;5.13;4.07;;;;;;;;;;4925953;28;20735;-56
2020/12/07 10:47:37;;;;;;;6.93;4.43;;;;;;;;;;4994011;28;20092;-55
2020/12/07 10:53:13;;;;;;;3.92;3.25;;;;;;;;;;4983965;28;20052;-57
2020/12/07 10:55:53;;;;;;;4.17;3.30;;;;;;;;;;5071371;28;20056;-55
2020/12/07 10:58:43;;;;;;;4.32;3.50;;;;;;;;;;5071923;28;20405;-56
2020/12/07 11:01:27;;;;;;;4.67;3.40;;;;;;;;;;5058981;28;20033;-56
2020/12/07 11:04:07;;;;;;;4.80;3.70;;;;;;;;;;5071738;28;20378;-53
2020/12/07 11:07:07;;;;;;;5.07;4.10;;;;;;;;;;5072201;28;20033;-55
2020/12/07 11:13:07;;;;;;;6.30;3.47;;;;;;;;;;5071662;28;20129;-51
2020/12/07 11:15:48;;;;;;;4.10;3.17;;;;;;;;;;5054954;28;20120;-57
2020/12/07 11:18:14;;;;;;;;;;;;;;;;;;5041714;28;20496;-55
2020/12/07 11:20:47;;;;;;;4.50;3.33;;;;;;;;;;5068399;28;20388;-56
2020/12/07 11:23:22;;;;;;;3.83;3.33;;;;;;;;;;5102299;28;20038;-55
2020/12/07 11:25:51;;;;;;;5.10;4.43;;;;;;;;;;5118204;28;20020;-56
2020/12/07 11:28:53;;;;;;;;;;;;;;;;;;;;;
2020/12/07 11:31:34;;;;;;;4.27;3.43;;;;;;;;;;5049827;28;20023;-56
2020/12/07 11:34:20;;;;;;;5.43;4.60;;;;;;;;;;5099643;28;20027;-56
2020/12/07 11:37:23;;;;;;;5.20;4.30;;;;;;;;;;5118075;28;20024;-56
2020/12/07 11:45:58;;;;;;;;;;;;;;;;;;;;;
2020/12/07 11:48:30;;;;;;;4.43;3.50;;;;;;;;;;5114887;28;20118;-56
2020/12/07 11:51:21;;;;;;;4.77;3.83;;;;;;;;;;5099991;28;20026;-57
2020/12/07 11:54:08;;;;;;;6.80;4.73;;;;;;;;;;5116583;28;20059;-56
2020/12/07 11:56:43;;;;;;;4.23;3.60;;;;;;;;;;5117844;28;20028;-55
2020/12/07 11:59:30;;;;;;;4.57;3.20;;;;;;;;;;5118402;28;20032;-57
2020/12/07 12:02:15;;;;;;;4.60;3.60;;;;;;;;;;5098881;28;20036;-56
2020/12/07 12:10:53;;;;;;;4.88;3.72;;;;;;;;;;4994715;28;20061;-54
2020/12/07 12:14:09;;;;;;;4.93;3.57;;;;;;;;;;5105032;28;20089;-57
2020/12/07 12:16:57;;;;;;;;;;;;;;;;;;;;;
2020/12/07 12:25:32;;;;;;;;;;;;;;;;;;;;;
2020/12/07 12:28:09;;;;;;;5.90;3.57;;;;;;;;;;5117994;28;20531;-57
2020/12/07 12:31:03;;;;;;;4.43;3.27;;;;;;;;;;5111362;28;20035;-56
2020/12/07 12:33:45;;;;;;;;;;;;;;;;;;;;;
2020/12/07 12:36:33;;;;;;;5.63;3.80;;;;;;;;;;5119094;28;20107;-56
2020/12/07 12:39:11;;;;;;;4.83;3.67;;;;;;;;;;5117777;28;20114;-55
2020/12/07 12:41:53;;;;;;;;;;;;;;;;;;;;;
2020/12/07 12:47:55;;;;;;;7.63;3.60;;;;;;;;;;5082655;28;20112;-57
2020/12/07 12:50:44;;;;;;;4.60;3.37;;;;;;;;;;5098627;28;20054;-57
2020/12/07 12:59:13;;;;;;;3.23;2.17;;;;;;;;;;5116495;28;20080;-56
2020/12/07 13:01:45;;;;;;;3.20;2.57;;;;;;;;;;5097329;28;20388;-56
2020/12/07 13:10:24;;;;;;;4.10;3.13;;;;;;;;;;5033718;28;20417;-52
2020/12/07 13:29:03;;;;;;;5.43;2.60;;;;;;;;;;5086547;28;20063;-55
2020/12/07 13:31:52;;;;;;;3.37;2.57;;;;;;;;;;5090100;28;20035;-55
2020/12/07 13:35:03;;;;;;;3.57;2.93;;;;;;;;;;5096286;28;20036;-54
2020/12/07 13:39:55;;;;;;;5.60;2.97;;;;;;;;;;5115951;28;20130;-56
2020/12/07 13:42:51;;;;;;;5.17;3.53;;;;;;;;;;5112818;28;20032;-56
2020/12/07 13:45:37;;;;;;;4.33;3.17;;;;;;;;;;5115800;28;20030;-54
2020/12/07 13:48:25;;;;;;;5.03;3.53;;;;;;;;;;5116038;28;20110;-55
2020/12/07 13:53:54;;;;;;;6.07;3.77;;;;;;;;;;5032472;28;20064;-56
2020/12/07 13:56:40;;;;;;;5.50;2.85;;;;;;;;;;4983567;28;20040;-53
2020/12/07 13:59:12;;;;;;;3.97;2.60;;;;;;;;;;5033049;28;20037;-55
2020/12/07 14:01:53;;;;;;;4.27;3.43;;;;;;;;;;5016688;28;20021;-56
2020/12/07 14:05:02;;;;;;;;;;;;;;;;;;;;;
2020/12/07 14:11:00;;;;;;;3.00;2.53;;;;;;;;;;5110967;28;20031;-54
2020/12/07 14:13:58;;;;;;;2.83;2.00;;;;;;;;;;5114523;28;20077;-56
2020/12/07 14:16:44;;;;;;;2.50;1.83;;;;;;;;;;5091659;28;20464;-56
2020/12/07 14:43:14;;;;;;;3.23;2.37;;;;;;;;;;5043539;28;20033;-57
2020/12/07 14:48:52;;;;;;;4.57;3.07;;;;;;;;;;5052437;28;20036;-56
2020/12/07 14:52:00;;;;;;;4.35;2.88;;;;;;;;;;5022773;28;20033;-57
2020/12/07 15:05:56;;;;;;;3.33;2.57;;;;;;;;;;5016721;28;20025;-55
2020/12/07 15:14:04;;;;;;;5.20;3.80;;;;;;;;;;5072497;28;20499;-56
2020/12/07 15:25:32;;;;;;;5.73;3.63;;;;;;;;;;5051354;28;20032;-56
2020/12/07 15:28:21;;;;;;;4.47;2.30;;;;;;;;;;5069089;28;20040;-56
2020/12/07 15:30:57;;;;;;;4.63;3.20;;;;;;;;;;5054401;28;20408;-56
2020/12/07 15:36:34;;;;;;;4.27;3.23;;;;;;;;;;5092081;28;20492;-56
2020/12/07 15:39:09;;;;;;;5.07;3.67;;;;;;;;;;5072785;28;20044;-57
2020/12/07 15:41:44;;;;;;;4.53;3.93;;;;;;;;;;5093721;28;20054;-56
2020/12/07 15:44:50;;;;;;;;;;;;;;;;;;;;;
2020/12/07 15:47:38;;;;;;;6.00;3.60;;;;;;;;;;5090526;28;20384;-56
2020/12/07 15:50:27;;;;;;;7.07;3.07;;;;;;;;;;5075609;28;20440;-55
2020/12/07 15:53:04;;;;;;;6.10;3.13;;;;;;;;;;5094642;28;20467;-56
2020/12/07 15:55:39;;;;;;;6.93;3.27;;;;;;;;;;5092536;28;20493;-57
2020/12/07 15:58:36;;;;;;;5.40;3.50;;;;;;;;;;5093482;28;20465;-56
2020/12/07 16:07:33;;;;;;;7.57;3.77;;;;;;;;;;5088368;28;20043;-56
2020/12/07 16:10:17;;;;;;;4.83;3.50;;;;;;;;;;5015546;28;20424;-56
2020/12/07 16:13:11;;;;;;;;;;;;;;;;;;;;;
2020/12/07 16:16:06;;;;;;;4.90;3.43;;;;;;;;;;5013406;28;20033;-56
2020/12/07 16:18:39;;;;;;;5.43;4.32;;;;;;;;;;4990911;28;20511;-57
2020/12/07 16:21:36;;;;;;;;;;;;;;;;;;;;;
2020/12/07 16:27:00;;;;;;;6.53;4.73;;;;;;;;;;5086239;28;20054;-56
2020/12/07 16:29:49;;;;;;;;;;;;;;;;;;;;;
2020/12/07 16:32:15;;;;;;;4.87;3.37;;;;;;;;;;5045010;28;20032;-57
2020/12/07 16:34:53;;;;;;;4.47;3.50;;;;;;;;;;5097771;28;20032;-56
2020/12/07 16:37:50;;;;;;;5.43;3.40;;;;;;;;;;5090408;28;20044;-56
2020/12/07 16:43:40;;;;;;;7.97;4.53;;;;;;;;;;5097311;28;20031;-57
2020/12/07 16:46:24;;;;;;;5.05;3.75;;;;;;;;;;5092438;28;20040;-57
2020/12/07 16:57:47;;;;;;;6.40;4.63;;;;;;;;;;5116909;28;20035;-57
2020/12/07 17:00:23;;;;;;;6.10;4.43;;;;;;;;;;5099629;28;20092;-57
2020/12/07 17:03:11;;;;;;;5.67;4.17;;;;;;;;;;5117411;28;20035;-57
2020/12/07 17:06:12;;;;;;;7.23;5.20;;;;;;;;;;5095219;28;20032;-55
2020/12/07 17:08:39;;;;;;;6.05;4.68;;;;;;;;;;5098705;28;20410;-57
2020/12/07 17:14:58;;;;;;;5.13;4.50;;;;;;;;;;5116847;28;20032;-57
2020/12/07 17:20:56;;;;;;;;;;;;;;;;;;;;;
2020/12/07 17:23:49;;;;;;;6.22;4.50;;;;;;;;;;5109717;28;20114;-57
2020/12/07 17:26:27;;;;;;;6.97;5.00;;;;;;;;;;5077888;28;20057;-56
2020/12/07 17:29:08;;;;;;;8.57;6.93;;;;;;;;;;5116400;28;20345;-57
2020/12/07 17:32:00;;;;;;;6.57;5.18;;;;;;;;;;5093811;28;20059;-57
2020/12/07 17:37:59;;;;;;;6.57;4.73;;;;;;;;;;5116762;28;20036;-55
2020/12/07 17:43:49;;;;;;;7.33;5.60;;;;;;;;;;5087464;28;20028;-57
2020/12/07 17:46:47;;;;;;;8.80;4.87;;;;;;;;;;5097783;28;20031;-55
2020/12/07 17:49:45;;;;;;;;;;;;;;;;;;;;;
2020/12/07 17:52:22;;;;;;;6.03;4.37;;;;;;;;;;5114417;28;20031;-56
2020/12/07 17:54:54;;;;;;;6.70;5.03;;;;;;;;;;5091709;28;20412;-52
2020/12/07 17:57:53;;;;;;;;;;;;;;;;;;;;;
2020/12/07 18:00:49;;;;;;;5.97;5.13;;;;;;;;;;5109306;28;20036;-54
2020/12/07 18:03:50;;;;;;;;;;;;;;;;;;;;;
2020/12/07 18:09:41;;;;;;;7.23;5.30;;;;;;;;;;5115392;28;20043;-56
2020/12/07 18:15:21;;;;;;;9.57;5.87;;;;;;;;;;5115651;28;20104;-57
2020/12/07 18:18:17;;;;;;;7.73;5.60;;;;;;;;;;5113976;28;20036;-57
2020/12/07 18:21:01;;;;;;;7.30;5.33;;;;;;;;;;5097612;28;20373;-57
2020/12/07 18:23:27;;;;;;;6.83;4.00;;;;;;;;;;5114863;28;20096;-56
2020/12/07 18:26:05;;;;;;;6.67;5.40;;;;;;;;;;5115319;28;20028;-56
2020/12/07 18:29:05;;;;;;;5.73;4.63;;;;;;;;;;5114954;28;20036;-57
2020/12/07 18:31:59;;;;;;;5.37;4.40;;;;;;;;;;5114045;28;20059;-58
2020/12/07 18:34:44;;;;;;;7.27;4.90;;;;;;;;;;5115583;28;20368;-57
2020/12/07 18:37:31;;;;;;;6.77;5.20;;;;;;;;;;5079200;28;20028;-57
2020/12/07 18:43:10;;;;;;;7.37;5.20;;;;;;;;;;5052246;28;20037;-54
2020/12/07 18:45:56;;;;;;;6.00;5.17;;;;;;;;;;5096281;28;20036;-54
2020/12/07 18:49:06;;;;;;;9.33;6.77;;;;;;;;;;5114950;28;20047;-57
2020/12/07 18:51:44;;;;;;;11.27;7.93;;;;;;;;;;5088401;28;20035;-56
2020/12/07 18:54:30;;;;;;;14.37;9.73;;;;;;;;;;5114836;28;20055;-57
2020/12/07 18:57:30;;;;;;;14.23;8.33;;;;;;;;;;5114859;28;20037;-57
2020/12/07 19:00:03;;;;;;;10.50;8.27;;;;;;;;;;5115864;28;20032;-54
2020/12/07 19:02:46;;;;;;;9.97;7.90;;;;;;;;;;5113094;28;20031;-56
2020/12/07 19:05:24;;;;;;;8.47;6.90;;;;;;;;;;5097207;28;20032;-55
2020/12/07 19:11:20;;;;;;;8.73;7.43;;;;;;;;;;5012398;28;20424;-56
2020/12/07 19:13:51;;;;;;;7.13;5.77;;;;;;;;;;5012709;28;20356;-57
2020/12/07 19:19:51;;;;;;;10.43;7.03;;;;;;;;;;4995500;28;20042;-56
2020/12/07 19:22:38;;;;;;;7.27;6.47;;;;;;;;;;5074108;28;20087;-56
2020/12/07 19:25:15;;;;;;;9.00;6.27;;;;;;;;;;5111478;28;20028;-56
2020/12/07 19:27:44;;;;;;;10.93;7.27;;;;;;;;;;5095882;28;20055;-56
2020/12/07 19:30:28;;;;;;;7.13;6.20;;;;;;;;;;5096165;28;20054;-57
2020/12/07 19:32:57;;;;;;;8.97;7.10;;;;;;;;;;5099246;28;20088;-57
2020/12/07 19:39:05;;;;;;;;;;;;;;;;;;;;;
2020/12/07 19:41:33;;;;;;;9.27;7.17;;;;;;;;;;5097303;28;20376;-55
2020/12/07 19:44:06;;;;;;;11.53;6.83;;;;;;;;;;5116067;28;20027;-55
2020/12/07 19:47:05;;;;;;;;;;;;;;;;;;;;;
2020/12/07 19:49:58;;;;;;;9.20;6.10;;;;;;;;;;5112343;28;20111;-55
2020/12/07 19:58:42;;;;;;;16.30;9.10;;;;;;;;;;5118567;28;20055;-57
2020/12/07 20:01:25;;;;;;;16.60;10.47;;;;;;;;;;5100951;28;20066;-57
2020/12/07 20:07:09;;;;;;;12.87;9.67;;;;;;;;;;5102717;28;20032;-56
2020/12/07 20:10:16;;;;;;;18.20;10.57;;;;;;;;;;5068286;28;20032;-56
2020/12/07 20:12:48;;;;;;;16.70;10.07;;;;;;;;;;5034635;28;20045;-57
2020/12/07 20:15:49;;;;;;;15.17;11.63;;;;;;;;;;5035138;28;20030;-56
2020/12/07 20:18:41;;;;;;;18.03;11.30;;;;;;;;;;5095409;28;20036;-58
2020/12/07 20:21:25;;;;;;;14.10;9.57;;;;;;;;;;5118189;28;20020;-56
2020/12/07 20:24:32;;;;;;;12.27;9.33;;;;;;;;;;5101080;28;20024;-58
2020/12/07 20:27:17;;;;;;;13.47;9.87;;;;;;;;;;5097293;28;20055;-57
2020/12/07 20:30:01;;;;;;;14.37;9.70;;;;;;;;;;5118179;28;20464;-56
2020/12/07 20:32:54;;;;;;;12.17;8.97;;;;;;;;;;5117489;28;20020;-56
2020/12/07 20:35:32;;;;;;;12.87;9.20;;;;;;;;;;5117780;28;20023;-58
2020/12/07 20:38:31;;;;;;;11.27;8.57;;;;;;;;;;5117504;28;20449;-57
2020/12/07 20:41:33;;;;;;;12.07;9.53;;;;;;;;;;5117522;28;20031;-58
2020/12/07 20:47:11;;;;;;;10.07;8.00;;;;;;;;;;5117435;28;20063;-57
2020/12/07 20:49:37;;;;;;;9.23;6.77;;;;;;;;;;5104164;28;20039;-56
2020/12/07 20:52:23;;;;;;;12.97;7.77;;;;;;;;;;5095794;28;20480;-54
2020/12/07 20:55:13;;;;;;;8.43;6.93;;;;;;;;;;5115995;28;20024;-58
2020/12/07 20:58:00;;;;;;;12.27;8.05;;;;;;;;;;5116064;28;20039;-58
2020/12/07 21:00:48;;;;;;;11.73;9.53;;;;;;;;;;5117181;28;20505;-58
2020/12/07 21:03:37;;;;;;;14.97;9.57;;;;;;;;;;5117688;28;20107;-56
2020/12/07 21:06:47;;;;;;;14.17;10.60;;;;;;;;;;5116819;28;20019;-58
2020/12/07 21:09:40;;;;;;;13.57;10.73;;;;;;;;;;5107946;28;20042;-56
2020/12/07 21:12:47;;;;;;;14.40;12.30;;;;;;;;;;5116543;28;20080;-57
2020/12/07 21:15:46;;;;;;;15.57;11.60;;;;;;;;;;5116869;28;20413;-56
2020/12/07 21:18:41;;;;;;;13.70;10.43;;;;;;;;;;5117084;28;20032;-56
2020/12/07 21:21:33;;;;;;;17.57;12.50;;;;;;;;;;5099133;28;20032;-58
2020/12/07 21:24:12;;;;;;;20.93;12.47;;;;;;;;;;5073497;28;20037;-56
2020/12/07 21:32:34;;;;;;;16.77;10.80;;;;;;;;;;4980343;28;19906;-55
2020/12/07 21:35:11;;;;;;;17.53;11.47;;;;;;;;;;5067407;28;20032;-58
2020/12/07 21:40:48;;;;;;;17.87;14.33;;;;;;;;;;5073566;28;20035;-57
2020/12/07 21:43:27;;;;;;;;;;;;;;;;;;;;;
2020/12/07 21:46:09;;;;;;;14.47;10.70;;;;;;;;;;5073829;28;20452;-56
2020/12/07 21:51:39;;;;;;;15.47;12.50;;;;;;;;;;5107870;28;20032;-58
2020/12/07 21:54:14;;;;;;;14.55;10.43;;;;;;;;;;5099820;28;20036;-56
2020/12/07 21:57:11;;;;;;;14.73;11.60;;;;;;;;;;5097320;28;20070;-56
2020/12/07 21:59:58;;;;;;;13.93;11.27;;;;;;;;;;5116201;28;20031;-57
2020/12/07 22:06:17;;;;;;;15.90;11.23;;;;;;;;;;5120000;28;20038;-57
2020/12/07 22:11:36;;;;;;;19.83;13.00;;;;;;;;;;5105958;28;20039;-57
2020/12/07 22:17:18;;;;;;;14.93;11.03;;;;;;;;;;5078629;28;20166;-58
2020/12/07 22:20:23;;;;;;;16.27;12.33;;;;;;;;;;5070133;28;20044;-57
2020/12/07 22:23:08;;;;;;;16.90;12.87;;;;;;;;;;5062165;28;20048;-58
2020/12/07 22:25:36;;;;;;;14.00;10.03;;;;;;;;;;5078366;28;20092;-55
2020/12/07 22:28:28;;;;;;;18.97;12.03;;;;;;;;;;5077862;28;20044;-55
2020/12/07 22:31:06;;;;;;;17.20;13.07;;;;;;;;;;5043911;28;20474;-55
2020/12/07 22:33:59;;;;;;;16.43;11.43;;;;;;;;;;5078484;28;20047;-53
2020/12/07 22:36:57;;;;;;;18.63;13.10;;;;;;;;;;5078774;28;20021;-55
2020/12/07 22:42:51;;;;;;;16.47;11.80;;;;;;;;;;5069460;28;20043;-55
2020/12/07 22:46:09;;;;;;;;;;;;;;;;;;;;;
2020/12/07 22:48:47;;;;;;;23.10;15.37;;;;;;;;;;5086822;28;20127;-54
2020/12/07 22:51:30;;;;;;;17.80;13.17;;;;;;;;;;5120269;28;20020;-56
2020/12/07 22:54:18;;;;;;;17.27;10.97;;;;;;;;;;5101825;28;20032;-53
2020/12/07 22:57:17;;;;;;;19.23;13.67;;;;;;;;;;5109279;28;20043;-55
2020/12/07 23:00:08;;;;;;;16.13;11.20;;;;;;;;;;5102874;28;20035;-56
2020/12/07 23:05:36;;;;;;;12.23;10.40;;;;;;;;;;5120464;28;19911;-55
2020/12/07 23:08:05;;;;;;;16.03;10.97;;;;;;;;;;5120773;28;20038;-55
2020/12/07 23:10:49;;;;;;;11.57;9.00;;;;;;;;;;5120234;28;20484;-55
2020/12/07 23:19:21;;;;;;;17.00;11.10;;;;;;;;;;5124511;28;20074;-55
2020/12/07 23:21:58;;;;;;;15.60;10.77;;;;;;;;;;5107471;28;20119;-56
2020/12/07 23:24:43;;;;;;;14.47;10.83;;;;;;;;;;5125581;28;20027;-58
2020/12/07 23:27:37;;;;;;;14.30;11.37;;;;;;;;;;5107955;28;20015;-56
2020/12/07 23:30:38;;;;;;;13.20;10.30;;;;;;;;;;5125783;28;20415;-58
2020/12/07 23:36:12;;;;;;;14.73;10.60;;;;;;;;;;5126126;28;20030;-56
2020/12/07 23:38:58;;;;;;;14.87;11.47;;;;;;;;;;5125325;28;20037;-58